首页
METAR-TAF:

METAR-TAF

机场 :

Shawbury, 英格兰

纬度: 52-48N, 经度: 002-40W, 海拔: 76米

当前天气观测

该预报发布于41分钟前的00:50 UTC
风速1节,风向南转南东
温度 3°C
湿度 100%
气压 1004 hPa
能见度10公里或以上

METAR: EGOS 170050Z AUTO 15001KT 9999 NCD 03/03 Q1004

时间: 02:31 (01:31 UTC)

预报

该预报发布于5小时和33分钟前的19:58 UTC
预报有效从16日的 21点(UTC)到 17日的 01点(UTC)
风速5节,风向西南
能见度10公里或以上
少量云层高于4000英尺

TAF: EGOS 161958Z 1621/1701 22005KT 9999 FEW040

超过4000个机场的气象观测和天气预报(METAR&TAF报告)。

可查询的气象台以黄色和红色小点在地图上表示。

将鼠标移到小点上方,可查看气象台名称。

然后点击查看天气观测和预报。

如需切换地图:点击带黑十字的绿色按钮放大地图;点击带横线的绿色按钮缩小地图;或者点击绿色箭头查看邻近地区的地图。


METAR-TAF: